sensor_id;sensor_type;location;lat;lon;timestamp;P1;durP1;ratioP1;P2;durP2;ratioP2
18695;SDS011;22617;43.690;27.956;2022-11-13T00:02:46;7.23;;;5.13;;
18695;SDS011;22617;43.690;27.956;2022-11-13T00:08:09;6.37;;;4.90;;
18695;SDS011;22617;43.690;27.956;2022-11-13T00:13:31;5.80;;;4.60;;
18695;SDS011;22617;43.690;27.956;2022-11-13T00:18:54;4.23;;;3.83;;
18695;SDS011;22617;43.690;27.956;2022-11-13T00:24:17;5.73;;;4.30;;
18695;SDS011;22617;43.690;27.956;2022-11-13T00:29:39;5.90;;;4.20;;
18695;SDS011;22617;43.690;27.956;2022-11-13T00:35:01;6.73;;;4.53;;
18695;SDS011;22617;43.690;27.956;2022-11-13T00:40:24;6.80;;;4.80;;
18695;SDS011;22617;43.690;27.956;2022-11-13T00:45:46;6.03;;;4.33;;
18695;SDS011;22617;43.690;27.956;2022-11-13T00:51:08;6.97;;;4.70;;
18695;SDS011;22617;43.690;27.956;2022-11-13T00:56:31;6.40;;;4.17;;
18695;SDS011;22617;43.690;27.956;2022-11-13T01:01:53;6.23;;;4.17;;
18695;SDS011;22617;43.690;27.956;2022-11-13T01:07:15;6.10;;;4.50;;
18695;SDS011;22617;43.690;27.956;2022-11-13T01:12:39;5.40;;;3.93;;
18695;SDS011;22617;43.690;27.956;2022-11-13T01:18:01;4.47;;;3.33;;
18695;SDS011;22617;43.690;27.956;2022-11-13T01:23:23;6.27;;;4.17;;
18695;SDS011;22617;43.690;27.956;2022-11-13T01:28:46;5.87;;;4.33;;
18695;SDS011;22617;43.690;27.956;2022-11-13T01:34:08;4.50;;;3.57;;
18695;SDS011;22617;43.690;27.956;2022-11-13T01:39:30;6.57;;;3.73;;
18695;SDS011;22617;43.690;27.956;2022-11-13T01:44:54;4.80;;;3.33;;
18695;SDS011;22617;43.690;27.956;2022-11-13T01:50:19;6.17;;;3.50;;
18695;SDS011;22617;43.690;27.956;2022-11-13T01:55:41;7.20;;;3.77;;
18695;SDS011;22617;43.690;27.956;2022-11-13T02:01:05;5.23;;;3.57;;
18695;SDS011;22617;43.690;27.956;2022-11-13T02:06:29;5.10;;;3.50;;
18695;SDS011;22617;43.690;27.956;2022-11-13T02:11:56;5.83;;;3.10;;
18695;SDS011;22617;43.690;27.956;2022-11-13T02:17:21;6.37;;;3.17;;
18695;SDS011;22617;43.690;27.956;2022-11-13T02:22:46;5.03;;;3.77;;
18695;SDS011;22617;43.690;27.956;2022-11-13T02:28:19;6.67;;;3.83;;
18695;SDS011;22617;43.690;27.956;2022-11-13T02:33:41;4.73;;;3.33;;
18695;SDS011;22617;43.690;27.956;2022-11-13T02:39:03;4.30;;;3.30;;
18695;SDS011;22617;43.690;27.956;2022-11-13T02:44:30;6.93;;;4.00;;
18695;SDS011;22617;43.690;27.956;2022-11-13T02:49:52;5.47;;;3.80;;
18695;SDS011;22617;43.690;27.956;2022-11-13T02:55:14;5.17;;;3.63;;
18695;SDS011;22617;43.690;27.956;2022-11-13T03:00:38;5.33;;;3.50;;
18695;SDS011;22617;43.690;27.956;2022-11-13T03:06:00;4.80;;;3.40;;
18695;SDS011;22617;43.690;27.956;2022-11-13T03:11:22;4.43;;;3.47;;
18695;SDS011;22617;43.690;27.956;2022-11-13T03:16:45;4.17;;;3.27;;
18695;SDS011;22617;43.690;27.956;2022-11-13T03:22:07;4.97;;;3.07;;
18695;SDS011;22617;43.690;27.956;2022-11-13T03:27:29;3.80;;;2.80;;
18695;SDS011;22617;43.690;27.956;2022-11-13T03:32:54;3.93;;;2.73;;
18695;SDS011;22617;43.690;27.956;2022-11-13T03:38:16;3.40;;;2.40;;
18695;SDS011;22617;43.690;27.956;2022-11-13T03:43:38;2.60;;;2.30;;
18695;SDS011;22617;43.690;27.956;2022-11-13T03:49:02;3.40;;;2.57;;
18695;SDS011;22617;43.690;27.956;2022-11-13T03:54:23;3.10;;;2.30;;
18695;SDS011;22617;43.690;27.956;2022-11-13T03:59:45;3.47;;;2.43;;
18695;SDS011;22617;43.690;27.956;2022-11-13T04:05:09;3.60;;;2.83;;
18695;SDS011;22617;43.690;27.956;2022-11-13T04:10:31;3.50;;;2.40;;
18695;SDS011;22617;43.690;27.956;2022-11-13T04:15:52;2.67;;;2.30;;
18695;SDS011;22617;43.690;27.956;2022-11-13T04:21:15;3.00;;;2.40;;
18695;SDS011;22617;43.690;27.956;2022-11-13T04:26:38;3.87;;;2.80;;
18695;SDS011;22617;43.690;27.956;2022-11-13T04:32:00;3.67;;;2.73;;
18695;SDS011;22617;43.690;27.956;2022-11-13T04:37:23;4.97;;;2.67;;
18695;SDS011;22617;43.690;27.956;2022-11-13T04:42:45;3.43;;;2.77;;
18695;SDS011;22617;43.690;27.956;2022-11-13T04:48:10;3.47;;;2.73;;
18695;SDS011;22617;43.690;27.956;2022-11-13T04:53:33;3.83;;;2.73;;
18695;SDS011;22617;43.690;27.956;2022-11-13T04:58:55;3.80;;;2.67;;
18695;SDS011;22617;43.690;27.956;2022-11-13T05:04:18;4.43;;;3.00;;
18695;SDS011;22617;43.690;27.956;2022-11-13T05:09:41;2.67;;;2.23;;
18695;SDS011;22617;43.690;27.956;2022-11-13T05:15:04;2.37;;;2.17;;
18695;SDS011;22617;43.690;27.956;2022-11-13T05:20:27;3.73;;;2.53;;
18695;SDS011;22617;43.690;27.956;2022-11-13T05:25:50;3.43;;;2.23;;
18695;SDS011;22617;43.690;27.956;2022-11-13T05:31:13;3.00;;;2.23;;
18695;SDS011;22617;43.690;27.956;2022-11-13T05:36:36;3.40;;;2.53;;
18695;SDS011;22617;43.690;27.956;2022-11-13T05:42:00;11.40;;;5.50;;
18695;SDS011;22617;43.690;27.956;2022-11-13T05:47:22;5.13;;;3.50;;
18695;SDS011;22617;43.690;27.956;2022-11-13T05:52:43;6.07;;;3.17;;
18695;SDS011;22617;43.690;27.956;2022-11-13T05:58:07;4.30;;;2.67;;
18695;SDS011;22617;43.690;27.956;2022-11-13T06:03:31;8.80;;;3.53;;
18695;SDS011;22617;43.690;27.956;2022-11-13T06:08:53;4.00;;;2.60;;
18695;SDS011;22617;43.690;27.956;2022-11-13T06:14:18;3.27;;;2.53;;
18695;SDS011;22617;43.690;27.956;2022-11-13T06:19:39;7.07;;;2.53;;
18695;SDS011;22617;43.690;27.956;2022-11-13T06:25:01;3.30;;;2.37;;
18695;SDS011;22617;43.690;27.956;2022-11-13T06:30:25;2.57;;;2.13;;
18695;SDS011;22617;43.690;27.956;2022-11-13T06:35:47;3.30;;;2.20;;
18695;SDS011;22617;43.690;27.956;2022-11-13T06:41:09;3.97;;;2.20;;
18695;SDS011;22617;43.690;27.956;2022-11-13T06:46:34;4.73;;;2.20;;
18695;SDS011;22617;43.690;27.956;2022-11-13T06:51:56;5.43;;;2.30;;
18695;SDS011;22617;43.690;27.956;2022-11-13T06:57:18;2.27;;;2.00;;
18695;SDS011;22617;43.690;27.956;2022-11-13T07:02:41;7.33;;;2.70;;
18695;SDS011;22617;43.690;27.956;2022-11-13T07:08:03;3.60;;;2.50;;
18695;SDS011;22617;43.690;27.956;2022-11-13T07:13:26;6.27;;;3.57;;
18695;SDS011;22617;43.690;27.956;2022-11-13T07:18:50;5.40;;;3.60;;
18695;SDS011;22617;43.690;27.956;2022-11-13T07:24:13;7.63;;;4.60;;
18695;SDS011;22617;43.690;27.956;2022-11-13T07:29:36;8.80;;;5.00;;
18695;SDS011;22617;43.690;27.956;2022-11-13T07:35:00;8.63;;;5.33;;
18695;SDS011;22617;43.690;27.956;2022-11-13T07:40:22;10.13;;;5.93;;
18695;SDS011;22617;43.690;27.956;2022-11-13T07:45:44;13.00;;;6.73;;
18695;SDS011;22617;43.690;27.956;2022-11-13T07:51:07;16.83;;;7.70;;
18695;SDS011;22617;43.690;27.956;2022-11-13T07:56:29;20.77;;;10.27;;
18695;SDS011;22617;43.690;27.956;2022-11-13T08:01:51;23.43;;;11.03;;
18695;SDS011;22617;43.690;27.956;2022-11-13T08:07:14;22.97;;;12.50;;
18695;SDS011;22617;43.690;27.956;2022-11-13T08:12:36;30.97;;;15.90;;
18695;SDS011;22617;43.690;27.956;2022-11-13T08:17:58;26.00;;;13.10;;
18695;SDS011;22617;43.690;27.956;2022-11-13T08:23:23;22.67;;;11.77;;
18695;SDS011;22617;43.690;27.956;2022-11-13T08:28:45;22.23;;;11.87;;
18695;SDS011;22617;43.690;27.956;2022-11-13T08:34:07;22.63;;;12.33;;
18695;SDS011;22617;43.690;27.956;2022-11-13T08:39:31;20.20;;;10.90;;
18695;SDS011;22617;43.690;27.956;2022-11-13T08:44:54;17.40;;;10.13;;
18695;SDS011;22617;43.690;27.956;2022-11-13T08:50:16;18.90;;;10.83;;
18695;SDS011;22617;43.690;27.956;2022-11-13T08:55:40;22.67;;;12.77;;
18695;SDS011;22617;43.690;27.956;2022-11-13T09:01:02;17.77;;;9.40;;
18695;SDS011;22617;43.690;27.956;2022-11-13T09:06:25;15.57;;;9.03;;
18695;SDS011;22617;43.690;27.956;2022-11-13T09:11:48;12.80;;;8.03;;
18695;SDS011;22617;43.690;27.956;2022-11-13T09:17:11;20.03;;;9.07;;
18695;SDS011;22617;43.690;27.956;2022-11-13T09:22:33;13.90;;;8.57;;
18695;SDS011;22617;43.690;27.956;2022-11-13T09:27:58;14.80;;;7.37;;
18695;SDS011;22617;43.690;27.956;2022-11-13T09:33:21;11.67;;;7.77;;
18695;SDS011;22617;43.690;27.956;2022-11-13T09:38:43;12.43;;;6.90;;
18695;SDS011;22617;43.690;27.956;2022-11-13T09:44:10;9.97;;;7.00;;
18695;SDS011;22617;43.690;27.956;2022-11-13T09:49:36;10.00;;;6.77;;
18695;SDS011;22617;43.690;27.956;2022-11-13T09:55:03;12.33;;;7.47;;
18695;SDS011;22617;43.690;27.956;2022-11-13T10:00:27;9.73;;;6.67;;
18695;SDS011;22617;43.690;27.956;2022-11-13T10:05:56;11.82;;;7.32;;
18695;SDS011;22617;43.690;27.956;2022-11-13T10:11:26;9.33;;;6.30;;
18695;SDS011;22617;43.690;27.956;2022-11-13T10:16:59;9.45;;;5.95;;
18695;SDS011;22617;43.690;27.956;2022-11-13T10:22:28;12.77;;;6.35;;
18695;SDS011;22617;43.690;27.956;2022-11-13T10:27:55;10.80;;;5.80;;
18695;SDS011;22617;43.690;27.956;2022-11-13T10:33:20;13.17;;;6.60;;
18695;SDS011;22617;43.690;27.956;2022-11-13T10:38:45;10.13;;;6.53;;
18695;SDS011;22617;43.690;27.956;2022-11-13T10:44:19;10.07;;;6.35;;
18695;SDS011;22617;43.690;27.956;2022-11-13T10:49:47;9.13;;;5.07;;
18695;SDS011;22617;43.690;27.956;2022-11-13T10:55:12;7.20;;;4.68;;
18695;SDS011;22617;43.690;27.956;2022-11-13T11:00:38;7.57;;;5.25;;
18695;SDS011;22617;43.690;27.956;2022-11-13T11:06:05;8.55;;;5.10;;
18695;SDS011;22617;43.690;27.956;2022-11-13T11:11:27;8.15;;;5.20;;
18695;SDS011;22617;43.690;27.956;2022-11-13T11:17:06;10.13;;;5.55;;
18695;SDS011;22617;43.690;27.956;2022-11-13T11:22:32;9.00;;;5.22;;
18695;SDS011;22617;43.690;27.956;2022-11-13T11:27:59;7.60;;;5.00;;
18695;SDS011;22617;43.690;27.956;2022-11-13T11:33:27;7.13;;;4.55;;
18695;SDS011;22617;43.690;27.956;2022-11-13T11:38:54;7.97;;;4.75;;
18695;SDS011;22617;43.690;27.956;2022-11-13T11:44:24;6.78;;;4.45;;
18695;SDS011;22617;43.690;27.956;2022-11-13T11:49:51;7.07;;;4.95;;
18695;SDS011;22617;43.690;27.956;2022-11-13T11:55:25;6.28;;;3.63;;
18695;SDS011;22617;43.690;27.956;2022-11-13T12:00:56;8.18;;;4.55;;
18695;SDS011;22617;43.690;27.956;2022-11-13T12:06:26;8.13;;;4.55;;
18695;SDS011;22617;43.690;27.956;2022-11-13T12:11:59;10.02;;;5.18;;
18695;SDS011;22617;43.690;27.956;2022-11-13T12:17:36;8.07;;;4.75;;
18695;SDS011;22617;43.690;27.956;2022-11-13T12:23:10;5.97;;;4.22;;
18695;SDS011;22617;43.690;27.956;2022-11-13T12:28:45;6.43;;;4.20;;
18695;SDS011;22617;43.690;27.956;2022-11-13T12:34:18;9.43;;;5.00;;
18695;SDS011;22617;43.690;27.956;2022-11-13T12:39:50;9.53;;;5.37;;
18695;SDS011;22617;43.690;27.956;2022-11-13T12:45:19;7.97;;;4.83;;
18695;SDS011;22617;43.690;27.956;2022-11-13T12:50:55;5.73;;;4.43;;
18695;SDS011;22617;43.690;27.956;2022-11-13T12:56:29;6.87;;;4.37;;
18695;SDS011;22617;43.690;27.956;2022-11-13T13:01:55;8.40;;;4.20;;
18695;SDS011;22617;43.690;27.956;2022-11-13T13:07:35;7.57;;;4.67;;
18695;SDS011;22617;43.690;27.956;2022-11-13T13:13:10;7.67;;;3.70;;
18695;SDS011;22617;43.690;27.956;2022-11-13T13:18:45;6.47;;;4.45;;
18695;SDS011;22617;43.690;27.956;2022-11-13T13:24:08;6.03;;;4.40;;
18695;SDS011;22617;43.690;27.956;2022-11-13T13:29:46;7.60;;;4.23;;
18695;SDS011;22617;43.690;27.956;2022-11-13T13:35:12;6.60;;;4.37;;
18695;SDS011;22617;43.690;27.956;2022-11-13T13:40:40;6.00;;;4.07;;
18695;SDS011;22617;43.690;27.956;2022-11-13T13:46:17;8.17;;;4.50;;
18695;SDS011;22617;43.690;27.956;2022-11-13T13:51:43;8.83;;;4.80;;
18695;SDS011;22617;43.690;27.956;2022-11-13T13:57:10;8.67;;;5.50;;
18695;SDS011;22617;43.690;27.956;2022-11-13T14:02:43;6.70;;;4.63;;
18695;SDS011;22617;43.690;27.956;2022-11-13T14:08:15;6.77;;;4.37;;
18695;SDS011;22617;43.690;27.956;2022-11-13T14:13:38;6.83;;;4.20;;
18695;SDS011;22617;43.690;27.956;2022-11-13T14:19:01;5.90;;;4.13;;
18695;SDS011;22617;43.690;27.956;2022-11-13T14:24:28;7.07;;;4.87;;
18695;SDS011;22617;43.690;27.956;2022-11-13T14:29:54;7.97;;;4.63;;
18695;SDS011;22617;43.690;27.956;2022-11-13T14:35:18;6.87;;;4.20;;
18695;SDS011;22617;43.690;27.956;2022-11-13T14:40:44;8.00;;;4.33;;
18695;SDS011;22617;43.690;27.956;2022-11-13T14:46:29;7.80;;;4.57;;
18695;SDS011;22617;43.690;27.956;2022-11-13T14:51:53;7.47;;;4.50;;
18695;SDS011;22617;43.690;27.956;2022-11-13T14:57:16;36.23;;;19.10;;
18695;SDS011;22617;43.690;27.956;2022-11-13T15:02:38;32.07;;;16.37;;
18695;SDS011;22617;43.690;27.956;2022-11-13T15:08:00;30.00;;;16.77;;
18695;SDS011;22617;43.690;27.956;2022-11-13T15:13:24;26.97;;;14.13;;
18695;SDS011;22617;43.690;27.956;2022-11-13T15:18:47;15.97;;;9.50;;
18695;SDS011;22617;43.690;27.956;2022-11-13T15:24:12;21.37;;;11.07;;
18695;SDS011;22617;43.690;27.956;2022-11-13T15:29:35;19.10;;;10.70;;
18695;SDS011;22617;43.690;27.956;2022-11-13T15:34:57;19.20;;;10.57;;
18695;SDS011;22617;43.690;27.956;2022-11-13T15:40:19;20.53;;;12.03;;
18695;SDS011;22617;43.690;27.956;2022-11-13T15:45:42;21.20;;;11.37;;
18695;SDS011;22617;43.690;27.956;2022-11-13T15:51:04;20.73;;;11.87;;
18695;SDS011;22617;43.690;27.956;2022-11-13T15:56:26;19.67;;;10.23;;
18695;SDS011;22617;43.690;27.956;2022-11-13T16:01:51;19.77;;;11.53;;
18695;SDS011;22617;43.690;27.956;2022-11-13T16:07:18;18.37;;;10.33;;
18695;SDS011;22617;43.690;27.956;2022-11-13T16:12:43;19.57;;;10.80;;
18695;SDS011;22617;43.690;27.956;2022-11-13T16:18:09;17.13;;;9.90;;
18695;SDS011;22617;43.690;27.956;2022-11-13T16:23:42;18.00;;;10.23;;
18695;SDS011;22617;43.690;27.956;2022-11-13T16:29:09;25.47;;;12.33;;
18695;SDS011;22617;43.690;27.956;2022-11-13T16:34:38;27.37;;;11.67;;
18695;SDS011;22617;43.690;27.956;2022-11-13T16:40:00;28.57;;;13.87;;
18695;SDS011;22617;43.690;27.956;2022-11-13T16:45:23;25.13;;;13.50;;
18695;SDS011;22617;43.690;27.956;2022-11-13T16:50:46;31.70;;;14.47;;
18695;SDS011;22617;43.690;27.956;2022-11-13T16:56:10;30.93;;;13.80;;
18695;SDS011;22617;43.690;27.956;2022-11-13T17:01:33;30.80;;;13.33;;
18695;SDS011;22617;43.690;27.956;2022-11-13T17:06:57;31.07;;;14.00;;
18695;SDS011;22617;43.690;27.956;2022-11-13T17:12:19;30.67;;;13.83;;
18695;SDS011;22617;43.690;27.956;2022-11-13T17:17:42;25.43;;;12.03;;
18695;SDS011;22617;43.690;27.956;2022-11-13T17:23:05;20.63;;;11.40;;
18695;SDS011;22617;43.690;27.956;2022-11-13T17:28:27;17.93;;;10.37;;
18695;SDS011;22617;43.690;27.956;2022-11-13T17:33:50;16.77;;;8.77;;
18695;SDS011;22617;43.690;27.956;2022-11-13T17:39:13;16.87;;;7.77;;
18695;SDS011;22617;43.690;27.956;2022-11-13T17:44:36;16.83;;;8.43;;
18695;SDS011;22617;43.690;27.956;2022-11-13T17:49:58;15.10;;;8.17;;
18695;SDS011;22617;43.690;27.956;2022-11-13T17:55:28;15.97;;;9.20;;
18695;SDS011;22617;43.690;27.956;2022-11-13T18:00:50;17.10;;;8.80;;
18695;SDS011;22617;43.690;27.956;2022-11-13T18:06:13;24.77;;;8.27;;
18695;SDS011;22617;43.690;27.956;2022-11-13T18:11:40;13.67;;;7.50;;
18695;SDS011;22617;43.690;27.956;2022-11-13T18:17:02;14.50;;;7.30;;
18695;SDS011;22617;43.690;27.956;2022-11-13T18:22:26;12.47;;;7.20;;
18695;SDS011;22617;43.690;27.956;2022-11-13T18:27:49;14.10;;;6.53;;
18695;SDS011;22617;43.690;27.956;2022-11-13T18:33:12;13.43;;;6.47;;
18695;SDS011;22617;43.690;27.956;2022-11-13T18:38:34;14.50;;;6.63;;
18695;SDS011;22617;43.690;27.956;2022-11-13T18:43:58;9.47;;;5.47;;
18695;SDS011;22617;43.690;27.956;2022-11-13T18:49:20;11.03;;;5.50;;
18695;SDS011;22617;43.690;27.956;2022-11-13T18:54:42;9.23;;;5.50;;
18695;SDS011;22617;43.690;27.956;2022-11-13T19:00:09;14.17;;;6.27;;
18695;SDS011;22617;43.690;27.956;2022-11-13T19:05:31;15.67;;;7.50;;
18695;SDS011;22617;43.690;27.956;2022-11-13T19:10:53;16.90;;;7.80;;
18695;SDS011;22617;43.690;27.956;2022-11-13T19:16:17;12.53;;;6.90;;
18695;SDS011;22617;43.690;27.956;2022-11-13T19:21:40;13.27;;;6.70;;
18695;SDS011;22617;43.690;27.956;2022-11-13T19:27:02;15.57;;;7.77;;
18695;SDS011;22617;43.690;27.956;2022-11-13T19:32:26;17.83;;;8.10;;
18695;SDS011;22617;43.690;27.956;2022-11-13T19:37:48;22.60;;;9.70;;
18695;SDS011;22617;43.690;27.956;2022-11-13T19:43:16;22.40;;;9.80;;
18695;SDS011;22617;43.690;27.956;2022-11-13T19:48:40;25.00;;;10.73;;
18695;SDS011;22617;43.690;27.956;2022-11-13T19:54:04;23.37;;;11.27;;
18695;SDS011;22617;43.690;27.956;2022-11-13T19:59:25;20.77;;;9.83;;
18695;SDS011;22617;43.690;27.956;2022-11-13T20:04:49;18.53;;;8.90;;
18695;SDS011;22617;43.690;27.956;2022-11-13T20:10:11;17.63;;;8.80;;
18695;SDS011;22617;43.690;27.956;2022-11-13T20:15:33;20.27;;;9.23;;
18695;SDS011;22617;43.690;27.956;2022-11-13T20:20:57;17.00;;;7.80;;
18695;SDS011;22617;43.690;27.956;2022-11-13T20:26:19;13.33;;;6.70;;
18695;SDS011;22617;43.690;27.956;2022-11-13T20:31:41;11.60;;;6.13;;
18695;SDS011;22617;43.690;27.956;2022-11-13T20:37:05;13.67;;;6.33;;
18695;SDS011;22617;43.690;27.956;2022-11-13T20:42:27;10.93;;;5.37;;
18695;SDS011;22617;43.690;27.956;2022-11-13T20:47:49;14.67;;;7.03;;
18695;SDS011;22617;43.690;27.956;2022-11-13T20:53:12;15.63;;;7.03;;
18695;SDS011;22617;43.690;27.956;2022-11-13T20:58:33;15.97;;;6.73;;
18695;SDS011;22617;43.690;27.956;2022-11-13T21:03:55;9.77;;;5.00;;
18695;SDS011;22617;43.690;27.956;2022-11-13T21:09:20;12.67;;;6.00;;
18695;SDS011;22617;43.690;27.956;2022-11-13T21:14:42;11.93;;;6.03;;
18695;SDS011;22617;43.690;27.956;2022-11-13T21:20:04;10.40;;;5.00;;
18695;SDS011;22617;43.690;27.956;2022-11-13T21:25:28;11.47;;;5.77;;
18695;SDS011;22617;43.690;27.956;2022-11-13T21:30:50;10.17;;;5.33;;
18695;SDS011;22617;43.690;27.956;2022-11-13T21:36:13;11.87;;;5.13;;
18695;SDS011;22617;43.690;27.956;2022-11-13T21:41:37;9.63;;;4.83;;
18695;SDS011;22617;43.690;27.956;2022-11-13T21:46:59;7.37;;;4.33;;
18695;SDS011;22617;43.690;27.956;2022-11-13T21:52:20;5.17;;;3.10;;
18695;SDS011;22617;43.690;27.956;2022-11-13T21:57:44;2.77;;;2.30;;
18695;SDS011;22617;43.690;27.956;2022-11-13T22:03:06;4.00;;;2.80;;
18695;SDS011;22617;43.690;27.956;2022-11-13T22:08:28;3.70;;;2.70;;
18695;SDS011;22617;43.690;27.956;2022-11-13T22:13:52;3.87;;;2.77;;
18695;SDS011;22617;43.690;27.956;2022-11-13T22:19:15;2.80;;;2.10;;
18695;SDS011;22617;43.690;27.956;2022-11-13T22:24:45;2.97;;;2.40;;
18695;SDS011;22617;43.690;27.956;2022-11-13T22:30:09;3.60;;;2.60;;
18695;SDS011;22617;43.690;27.956;2022-11-13T22:35:32;3.80;;;2.70;;
18695;SDS011;22617;43.690;27.956;2022-11-13T22:40:54;4.07;;;3.00;;
18695;SDS011;22617;43.690;27.956;2022-11-13T22:46:23;4.60;;;3.00;;
18695;SDS011;22617;43.690;27.956;2022-11-13T22:51:46;4.00;;;3.20;;
18695;SDS011;22617;43.690;27.956;2022-11-13T22:57:08;4.50;;;3.20;;
18695;SDS011;22617;43.690;27.956;2022-11-13T23:02:31;5.03;;;3.30;;
18695;SDS011;22617;43.690;27.956;2022-11-13T23:07:53;4.90;;;3.30;;
18695;SDS011;22617;43.690;27.956;2022-11-13T23:13:15;5.30;;;3.60;;
18695;SDS011;22617;43.690;27.956;2022-11-13T23:18:38;6.77;;;4.23;;
18695;SDS011;22617;43.690;27.956;2022-11-13T23:24:01;7.17;;;4.53;;
18695;SDS011;22617;43.690;27.956;2022-11-13T23:29:23;8.77;;;6.00;;
18695;SDS011;22617;43.690;27.956;2022-11-13T23:34:46;8.40;;;5.73;;
18695;SDS011;22617;43.690;27.956;2022-11-13T23:40:24;8.53;;;5.27;;
18695;SDS011;22617;43.690;27.956;2022-11-13T23:45:45;7.50;;;5.03;;
18695;SDS011;22617;43.690;27.956;2022-11-13T23:51:09;11.53;;;6.70;;
18695;SDS011;22617;43.690;27.956;2022-11-13T23:56:30;14.57;;;7.70;;
